Time;durP1;ratioP1;P1;durP2;ratioP2;P2;SDS_P1;SDS_P2;PMS_P1;PMS_P2;Temp;Humidity;BMP_temperature;BMP_pressure;BME280_temperature;BME280_humidity;BME280_pressure;Samples;Min_cycle;Max_cycle;Signal;HPM_P1;HPM_P2
2023/09/03 00:01:44;;;;;;;16.17;9.57;;;13.50;99.90;;;;;;4949050;28;20408;-67
2023/09/03 00:04:10;;;;;;;13.10;8.70;;;13.50;99.90;;;;;;4970609;28;20511;-67
2023/09/03 00:06:37;;;;;;;15.95;10.38;;;13.50;99.90;;;;;;4947517;28;20057;-67
2023/09/03 00:09:04;;;;;;;13.52;9.20;;;13.40;99.90;;;;;;4985328;28;20062;-66
2023/09/03 00:11:31;;;;;;;13.63;8.38;;;13.40;99.90;;;;;;4949900;28;20129;-68
2023/09/03 00:13:57;;;;;;;11.80;7.97;;;13.30;99.90;;;;;;4978937;28;20061;-66
2023/09/03 00:16:23;;;;;;;12.05;7.80;;;13.30;99.90;;;;;;4949396;28;20061;-67
2023/09/03 00:18:50;;;;;;;11.32;7.43;;;13.20;99.90;;;;;;4987461;28;20050;-68
2023/09/03 00:21:17;;;;;;;11.48;7.30;;;13.20;99.90;;;;;;4950798;28;20048;-66
2023/09/03 00:23:43;;;;;;;15.55;7.82;;;13.10;99.90;;;;;;5006321;28;20064;-67
2023/09/03 00:26:17;;;;;;;12.90;6.97;;;13.10;99.90;;;;;;4974687;28;20056;-67
2023/09/03 00:28:43;;;;;;;11.98;7.75;;;13.10;99.90;;;;;;5000726;28;20042;-66
2023/09/03 00:31:09;;;;;;;12.63;8.10;;;13.00;99.90;;;;;;4974607;28;20049;-67
2023/09/03 00:33:37;;;;;;;18.92;11.55;;;13.00;99.90;;;;;;5004055;28;20057;-68
2023/09/03 00:36:06;;;;;;;16.65;10.77;;;13.00;99.90;;;;;;4969705;28;20096;-67
2023/09/03 00:38:32;;;;;;;16.52;10.90;;;13.00;99.90;;;;;;5003731;28;20058;-67
2023/09/03 00:40:58;;;;;;;14.18;9.32;;;13.00;99.90;;;;;;4977260;28;20053;-67
2023/09/03 00:43:25;;;;;;;12.90;8.45;;;12.90;99.90;;;;;;5011898;28;20042;-67
2023/09/03 00:45:52;;;;;;;13.57;8.68;;;12.90;99.90;;;;;;4967098;28;20546;-66
2023/09/03 00:48:26;;;;;;;15.52;8.88;;;12.80;99.90;;;;;;4995502;28;20632;-67
2023/09/03 00:50:52;;;;;;;12.18;7.47;;;12.80;99.90;;;;;;4952284;28;172460;-66
2023/09/03 00:53:20;;;;;;;10.73;7.03;;;12.80;99.90;;;;;;5004974;28;20056;-66
2023/09/03 00:55:46;;;;;;;9.75;6.28;;;12.80;99.90;;;;;;4965869;28;20109;-66
2023/09/03 00:58:14;;;;;;;9.77;5.85;;;12.70;99.90;;;;;;4995161;28;20058;-67
2023/09/03 01:00:40;;;;;;;11.30;6.97;;;12.70;99.90;;;;;;4963472;28;20196;-67
2023/09/03 01:03:06;;;;;;;12.02;6.93;;;12.70;99.90;;;;;;5010940;28;20058;-66
2023/09/03 01:05:32;;;;;;;11.73;6.30;;;12.60;99.90;;;;;;4964431;28;20050;-66
2023/09/03 01:08:00;;;;;;;10.60;6.63;;;12.60;99.90;;;;;;4984678;28;20060;-67
2023/09/03 01:10:50;;;;;;;10.95;6.90;;;12.50;99.90;;;;;;4966320;28;20532;-66
2023/09/03 01:13:32;;;;;;;10.38;6.32;;;12.50;99.90;;;;;;5010172;28;20053;-66
2023/09/03 01:16:01;;;;;;;10.82;6.40;;;12.50;99.90;;;;;;4971557;28;20068;-68
2023/09/03 01:18:28;;;;;;;11.00;6.13;;;12.50;99.90;;;;;;5009945;28;20058;-67
2023/09/03 01:21:34;;;;;;;10.15;6.47;;;12.50;99.90;;;;;;4970129;28;20734;-66
2023/09/03 01:24:13;;;;;;;10.63;6.85;;;12.50;99.90;;;;;;4998950;28;20046;-67
2023/09/03 01:27:14;;;;;;;11.13;7.38;;;12.50;99.90;;;;;;4976739;28;20045;-67
2023/09/03 01:29:42;;;;;;;11.65;7.50;;;12.50;99.90;;;;;;5004958;28;20522;-66
2023/09/03 01:32:09;;;;;;;16.17;11.27;;;12.50;99.90;;;;;;4957029;28;20053;-66
2023/09/03 01:34:36;;;;;;;15.35;9.88;;;12.50;99.90;;;;;;4984498;28;20050;-68
2023/09/03 01:37:04;;;;;;;13.25;8.82;;;12.50;99.90;;;;;;4963107;28;20057;-66
2023/09/03 01:39:30;;;;;;;13.88;8.32;;;12.60;99.90;;;;;;4985044;28;20058;-67
2023/09/03 01:41:56;;;;;;;15.13;10.48;;;12.60;99.90;;;;;;4964080;28;20046;-67
2023/09/03 01:44:22;;;;;;;14.65;9.48;;;12.60;99.90;;;;;;4982490;28;20050;-68
2023/09/03 01:46:50;;;;;;;14.77;9.45;;;12.60;99.90;;;;;;4952200;28;20049;-67
2023/09/03 01:49:34;;;;;;;13.35;9.43;;;12.60;99.90;;;;;;4986553;28;20046;-66
2023/09/03 01:52:06;;;;;;;14.27;10.32;;;12.60;99.90;;;;;;4932382;28;213253;-67
2023/09/03 01:54:40;;;;;;;17.73;11.50;;;12.60;99.90;;;;;;4984790;28;20061;-67
2023/09/03 01:57:23;;;;;;;16.30;12.05;;;12.60;99.90;;;;;;4959353;28;20042;-68
2023/09/03 01:59:53;;;;;;;17.05;12.10;;;12.60;99.90;;;;;;5005452;28;20514;-67
2023/09/03 02:02:20;;;;;;;15.90;11.38;;;12.60;99.90;;;;;;4953489;28;20054;-67
2023/09/03 02:04:46;;;;;;;16.70;11.25;;;12.70;99.90;;;;;;5001389;28;20049;-67
2023/09/03 02:07:13;;;;;;;17.15;11.48;;;12.70;99.90;;;;;;4980340;28;20120;-67
2023/09/03 02:09:39;;;;;;;16.73;10.93;;;12.70;99.90;;;;;;5018980;28;20057;-65
2023/09/03 02:12:06;;;;;;;18.33;12.45;;;12.70;99.90;;;;;;4981776;28;20419;-66
2023/09/03 02:14:33;;;;;;;14.95;9.95;;;12.70;99.90;;;;;;5003468;28;20053;-67
2023/09/03 02:16:59;;;;;;;14.13;8.82;;;12.70;99.90;;;;;;4975051;28;20054;-67
2023/09/03 02:19:25;;;;;;;13.63;8.48;;;12.70;99.90;;;;;;5001912;28;20041;-68
2023/09/03 02:21:51;;;;;;;17.13;11.25;;;12.70;99.90;;;;;;4973939;28;20125;-67
2023/09/03 02:24:18;;;;;;;20.92;13.07;;;12.60;99.90;;;;;;5004393;28;20064;-67
2023/09/03 02:26:45;;;;;;;14.93;10.30;;;12.60;99.90;;;;;;4962809;28;20060;-67
2023/09/03 02:29:13;;;;;;;17.25;11.90;;;12.60;99.90;;;;;;5000309;28;20084;-66
2023/09/03 02:31:39;;;;;;;14.60;10.88;;;12.50;99.90;;;;;;4973772;28;20096;-67
2023/09/03 02:34:06;;;;;;;11.90;8.27;;;12.60;99.90;;;;;;4988065;28;20058;-67
2023/09/03 02:36:34;;;;;;;15.10;9.43;;;12.50;99.90;;;;;;4946889;28;20463;-68
2023/09/03 02:39:02;;;;;;;15.10;9.63;;;12.50;99.90;;;;;;4974802;28;20062;-66
2023/09/03 02:41:31;;;;;;;18.20;11.15;;;12.50;99.90;;;;;;4954441;28;20542;-68
2023/09/03 02:43:59;;;;;;;14.10;10.10;;;12.40;99.90;;;;;;5006016;28;20050;-67
2023/09/03 02:46:25;;;;;;;15.20;10.02;;;12.40;99.90;;;;;;4950451;28;20539;-67
2023/09/03 02:48:52;;;;;;;14.05;10.02;;;12.40;99.90;;;;;;4977681;28;20046;-66
2023/09/03 02:51:18;;;;;;;11.82;7.65;;;12.40;99.90;;;;;;4923274;28;208575;-66
2023/09/03 02:53:45;;;;;;;11.63;7.78;;;12.40;99.90;;;;;;4974380;28;20058;-66
2023/09/03 02:56:15;;;;;;;14.02;8.73;;;12.30;99.90;;;;;;4936242;28;20544;-66
2023/09/03 02:58:41;;;;;;;17.30;9.80;;;12.30;99.90;;;;;;4974700;28;20065;-68
2023/09/03 03:01:09;;;;;;;14.45;9.35;;;12.30;99.90;;;;;;4940862;28;20054;-67
2023/09/03 03:03:35;;;;;;;15.30;9.30;;;12.30;99.90;;;;;;4976367;28;20094;-67
2023/09/03 03:06:01;;;;;;;16.48;9.82;;;12.20;99.90;;;;;;4948605;28;20531;-67
2023/09/03 03:08:28;;;;;;;13.68;9.57;;;12.20;99.90;;;;;;4993067;28;20057;-67
2023/09/03 03:11:14;;;;;;;13.02;8.93;;;12.20;99.90;;;;;;4964571;28;20073;-66
2023/09/03 03:13:43;;;;;;;12.02;8.30;;;12.10;99.90;;;;;;4998387;28;20054;-67
2023/09/03 03:16:11;;;;;;;13.27;8.07;;;12.10;99.90;;;;;;4958936;28;20062;-67
2023/09/03 03:18:39;;;;;;;13.27;8.07;;;12.00;99.90;;;;;;4999348;28;20542;-67
2023/09/03 03:21:14;;;;;;;12.57;8.50;;;12.00;99.90;;;;;;4963244;28;20511;-66
2023/09/03 03:23:41;;;;;;;14.23;8.80;;;12.00;99.90;;;;;;5002934;28;20072;-67
2023/09/03 03:26:08;;;;;;;12.30;8.55;;;12.00;99.90;;;;;;4966431;28;20068;-66
2023/09/03 03:28:35;;;;;;;11.75;7.72;;;11.90;99.90;;;;;;4985622;28;20057;-67
2023/09/03 03:31:17;;;;;;;10.55;6.93;;;11.90;99.90;;;;;;4953632;28;20050;-67
2023/09/03 03:33:44;;;;;;;12.18;7.70;;;11.90;99.90;;;;;;4988709;28;20061;-68
2023/09/03 03:36:15;;;;;;;9.65;6.18;;;11.90;99.90;;;;;;4961299;28;20427;-66
2023/09/03 03:38:42;;;;;;;10.55;7.03;;;11.80;99.90;;;;;;5010925;28;20046;-67
2023/09/03 03:41:19;;;;;;;11.07;6.50;;;11.80;99.90;;;;;;4951434;28;20072;-66
2023/09/03 03:43:47;;;;;;;12.07;7.55;;;11.80;99.90;;;;;;5005831;28;20049;-67
2023/09/03 03:46:17;;;;;;;9.63;6.60;;;11.80;99.90;;;;;;4967882;28;20065;-66
2023/09/03 03:48:44;;;;;;;10.38;6.38;;;11.70;99.90;;;;;;5000707;28;20058;-67
2023/09/03 03:51:10;;;;;;;10.20;6.57;;;11.60;99.90;;;;;;4957211;28;143871;-67
2023/09/03 03:53:37;;;;;;;10.82;7.18;;;11.60;99.90;;;;;;5001475;28;20057;-68
2023/09/03 03:56:05;;;;;;;10.68;7.07;;;11.60;99.90;;;;;;4957936;28;20053;-67
2023/09/03 03:58:36;;;;;;;9.43;6.45;;;11.70;99.90;;;;;;4993595;28;20048;-67
2023/09/03 04:01:12;;;;;;;10.10;6.35;;;11.60;99.90;;;;;;4958634;28;20058;-67
2023/09/03 04:03:39;;;;;;;10.00;6.88;;;11.60;99.90;;;;;;4992014;28;20061;-68
2023/09/03 04:06:05;;;;;;;10.32;7.43;;;11.70;99.90;;;;;;4965147;28;20147;-68
2023/09/03 04:08:33;;;;;;;8.50;5.35;;;11.70;99.90;;;;;;5011854;28;20057;-68
2023/09/03 04:11:04;;;;;;;9.15;6.25;;;11.70;99.90;;;;;;4959568;28;20049;-66
2023/09/03 04:13:31;;;;;;;9.63;6.18;;;11.70;99.90;;;;;;4987623;28;20050;-67
2023/09/03 04:15:58;;;;;;;8.90;5.15;;;11.70;99.90;;;;;;4944062;28;20053;-66
2023/09/03 04:18:26;;;;;;;8.98;6.15;;;11.60;99.90;;;;;;4988838;28;20061;-67
2023/09/03 04:20:53;;;;;;;8.63;5.50;;;11.60;99.90;;;;;;4942426;28;20058;-68
2023/09/03 04:23:20;;;;;;;9.10;5.50;;;11.60;99.90;;;;;;4984032;28;20054;-67
2023/09/03 04:25:46;;;;;;;8.50;5.53;;;11.60;99.90;;;;;;4947212;28;20050;-67
2023/09/03 04:28:12;;;;;;;10.02;5.50;;;11.50;99.90;;;;;;4997393;28;20422;-67
2023/09/03 04:30:39;;;;;;;8.68;5.72;;;11.50;99.90;;;;;;4951703;28;20053;-68
2023/09/03 04:33:07;;;;;;;10.45;7.05;;;11.50;99.90;;;;;;4991103;28;20415;-66
2023/09/03 04:35:34;;;;;;;9.00;6.07;;;11.40;99.90;;;;;;4967891;28;20064;-68
2023/09/03 04:38:00;;;;;;;9.80;6.53;;;11.40;99.90;;;;;;5011169;28;20050;-68
2023/09/03 04:40:27;;;;;;;13.38;7.95;;;11.40;99.90;;;;;;4966267;28;20474;-67
2023/09/03 04:42:53;;;;;;;9.82;5.88;;;11.40;99.90;;;;;;4995975;28;20047;-67
2023/09/03 04:45:19;;;;;;;8.68;5.60;;;11.40;99.90;;;;;;4961381;28;21826;-68
2023/09/03 04:47:45;;;;;;;10.65;6.47;;;11.30;99.90;;;;;;4991163;28;20057;-69
2023/09/03 04:50:11;;;;;;;9.50;6.43;;;11.40;99.90;;;;;;4951919;28;44411;-66
2023/09/03 04:52:48;;;;;;;10.98;6.30;;;11.40;99.90;;;;;;4979662;28;20065;-67
2023/09/03 04:55:14;;;;;;;10.38;6.10;;;11.40;99.90;;;;;;4943448;28;20062;-66
2023/09/03 04:57:41;;;;;;;8.80;5.57;;;11.40;99.90;;;;;;4983594;28;20042;-66
2023/09/03 05:00:08;;;;;;;9.32;6.20;;;11.40;99.90;;;;;;4946629;28;20061;-68
2023/09/03 05:02:34;;;;;;;9.05;5.68;;;11.40;99.90;;;;;;4962317;28;20062;-68
2023/09/03 05:05:00;;;;;;;8.07;4.78;;;11.40;99.90;;;;;;4973596;28;20050;-66
2023/09/03 05:07:26;;;;;;;8.40;5.28;;;11.40;99.90;;;;;;4979276;28;20054;-66
2023/09/03 05:09:53;;;;;;;8.57;5.20;;;11.40;99.90;;;;;;4981178;28;20077;-68
2023/09/03 05:12:20;;;;;;;9.32;5.63;;;11.50;99.90;;;;;;4956546;28;21181;-68
2023/09/03 05:14:46;;;;;;;8.40;5.30;;;11.50;99.90;;;;;;4985483;28;20054;-67
2023/09/03 05:17:12;;;;;;;9.18;5.70;;;11.60;99.90;;;;;;4929559;28;20061;-67
2023/09/03 05:19:39;;;;;;;9.80;6.05;;;11.60;99.90;;;;;;4991110;28;20066;-68
2023/09/03 05:22:05;;;;;;;10.15;6.15;;;11.70;99.90;;;;;;4957752;28;20057;-67
2023/09/03 05:24:32;;;;;;;9.30;6.18;;;11.70;99.90;;;;;;5002490;28;20056;-67
2023/09/03 05:26:58;;;;;;;8.70;5.72;;;11.80;99.90;;;;;;4971842;28;20053;-67
2023/09/03 05:29:24;;;;;;;9.38;5.05;;;11.80;99.90;;;;;;4999295;28;20507;-67
2023/09/03 05:31:52;;;;;;;8.98;5.72;;;11.90;99.90;;;;;;4981234;28;20042;-68
2023/09/03 05:34:18;;;;;;;9.23;5.53;;;12.00;99.90;;;;;;5007630;28;20054;-67
2023/09/03 05:36:44;;;;;;;8.05;4.95;;;12.00;99.90;;;;;;4980192;28;20064;-66
2023/09/03 05:39:10;;;;;;;10.00;6.32;;;12.10;99.90;;;;;;4982835;28;20054;-67
2023/09/03 05:41:37;;;;;;;8.85;5.50;;;12.20;99.90;;;;;;4963772;28;20060;-66
2023/09/03 05:44:08;;;;;;;9.95;5.30;;;12.40;99.90;;;;;;4990974;28;20065;-67
2023/09/03 05:46:35;;;;;;;9.27;5.10;;;12.80;99.90;;;;;;4972158;28;20071;-67
2023/09/03 05:49:02;;;;;;;8.57;4.95;;;13.10;99.90;;;;;;4988366;28;20050;-67
2023/09/03 05:51:28;;;;;;;7.40;3.95;;;13.50;99.90;;;;;;4935499;28;170182;-65
2023/09/03 05:53:54;;;;;;;8.57;4.25;;;13.60;99.90;;;;;;4985026;28;20058;-67
2023/09/03 05:56:20;;;;;;;7.80;4.15;;;13.70;99.90;;;;;;4961777;28;20454;-67
2023/09/03 05:58:46;;;;;;;8.98;4.03;;;13.80;99.90;;;;;;5007405;28;20045;-69
2023/09/03 06:01:13;;;;;;;8.05;4.28;;;13.90;99.90;;;;;;4971810;28;20854;-68
2023/09/03 06:03:40;;;;;;;7.80;4.63;;;14.20;99.90;;;;;;5007955;28;20053;-66
2023/09/03 06:06:09;;;;;;;8.60;4.18;;;14.40;99.90;;;;;;4981646;28;20062;-66
2023/09/03 06:08:36;;;;;;;8.68;4.05;;;14.60;99.90;;;;;;5001931;28;20061;-69
2023/09/03 06:11:03;;;;;;;8.52;4.20;;;14.80;99.90;;;;;;4976296;28;20533;-67
2023/09/03 06:13:31;;;;;;;9.95;4.53;;;14.90;99.90;;;;;;5003804;28;20065;-67
2023/09/03 06:15:58;;;;;;;7.97;4.28;;;14.80;99.90;;;;;;4969010;28;20045;-66
2023/09/03 06:18:25;;;;;;;7.95;4.00;;;14.80;99.90;;;;;;4998534;28;20052;-67
2023/09/03 06:20:52;;;;;;;8.02;4.28;;;14.70;99.90;;;;;;4971016;28;20541;-68
2023/09/03 06:23:18;;;;;;;7.50;3.70;;;14.70;99.90;;;;;;4997316;28;20055;-66
2023/09/03 06:25:46;;;;;;;7.60;3.83;;;14.80;99.90;;;;;;4948390;28;20050;-66
2023/09/03 06:28:12;;;;;;;8.18;4.47;;;14.80;99.90;;;;;;4980090;28;20054;-68
2023/09/03 06:30:39;;;;;;;7.80;4.40;;;14.80;99.90;;;;;;4950140;28;20042;-66
2023/09/03 06:33:05;;;;;;;7.72;4.00;;;15.00;99.90;;;;;;4995867;28;20046;-68
2023/09/03 06:35:32;;;;;;;7.40;4.00;;;15.10;99.90;;;;;;4950657;28;20057;-66
2023/09/03 06:37:58;;;;;;;7.90;4.35;;;15.10;99.90;;;;;;4994970;28;20046;-66
2023/09/03 06:40:25;;;;;;;8.65;3.97;;;15.10;99.90;;;;;;4945631;28;20055;-67
2023/09/03 06:42:52;;;;;;;8.40;4.40;;;15.20;99.90;;;;;;5003740;28;20049;-67
2023/09/03 06:45:19;;;;;;;7.60;4.10;;;15.30;99.90;;;;;;4964026;28;20046;-67
2023/09/03 06:47:45;;;;;;;7.30;3.65;;;15.30;99.90;;;;;;4998327;28;20053;-67
2023/09/03 06:50:14;;;;;;;8.00;4.00;;;15.40;99.90;;;;;;4956876;28;52042;-67
2023/09/03 06:52:41;;;;;;;8.35;4.00;;;15.50;99.90;;;;;;5007380;28;20046;-67
2023/09/03 06:55:07;;;;;;;8.25;4.03;;;15.60;99.90;;;;;;4972151;28;20492;-68
2023/09/03 06:57:33;;;;;;;8.98;4.18;;;15.80;99.90;;;;;;5008980;28;20073;-68
2023/09/03 07:00:05;;;;;;;10.32;4.30;;;16.00;99.90;;;;;;4976703;28;20039;-68
2023/09/03 07:02:32;;;;;;;9.93;3.97;;;16.10;99.90;;;;;;4967611;28;20061;-67
2023/09/03 07:04:59;;;;;;;7.82;3.92;;;16.50;99.90;;;;;;5001497;28;20062;-67
2023/09/03 07:07:29;;;;;;;7.70;3.80;;;16.70;99.90;;;;;;4945872;28;20299;-68
2023/09/03 07:09:55;;;;;;;9.50;3.80;;;16.90;99.90;;;;;;5005395;28;20054;-67
2023/09/03 07:12:21;;;;;;;8.57;3.60;;;17.20;99.90;;;;;;4975931;28;20057;-65
2023/09/03 07:14:48;;;;;;;8.05;3.55;;;17.60;99.90;;;;;;5003856;28;20046;-67
2023/09/03 07:17:14;;;;;;;8.00;3.42;;;18.00;99.90;;;;;;4938093;28;20057;-65
2023/09/03 07:19:40;;;;;;;10.20;3.50;;;18.20;99.90;;;;;;4982172;28;20066;-66
2023/09/03 07:22:06;;;;;;;7.72;3.30;;;18.60;99.90;;;;;;4935869;28;20069;-66
2023/09/03 07:24:32;;;;;;;7.35;3.30;;;18.90;99.90;;;;;;4959929;28;20054;-65
2023/09/03 07:26:58;;;;;;;8.05;3.08;;;19.20;99.90;;;;;;4941089;28;20180;-66
2023/09/03 07:29:24;;;;;;;8.00;3.10;;;19.40;99.90;;;;;;4980573;28;20065;-68
2023/09/03 07:31:50;;;;;;;7.70;2.90;;;19.50;99.90;;;;;;4950888;28;20680;-67
2023/09/03 07:34:16;;;;;;;9.02;2.97;;;19.70;99.90;;;;;;4983185;28;20603;-67
2023/09/03 07:36:43;;;;;;;7.72;3.10;;;19.70;99.90;;;;;;4941919;28;20054;-67
2023/09/03 07:39:09;;;;;;;6.70;3.03;;;19.80;99.90;;;;;;4976078;28;20065;-66
2023/09/03 07:41:36;;;;;;;6.95;3.00;;;19.90;99.90;;;;;;4939923;28;20400;-68
2023/09/03 07:44:03;;;;;;;7.20;3.00;;;20.10;99.90;;;;;;4984830;28;20058;-66
2023/09/03 07:46:30;;;;;;;8.60;3.30;;;20.40;99.90;;;;;;4955306;28;20057;-68
2023/09/03 07:48:56;;;;;;;8.27;3.10;;;20.40;99.90;;;;;;4999921;28;20065;-67
2023/09/03 07:51:22;;;;;;;7.55;3.17;;;20.70;99.90;;;;;;4953383;28;102738;-67
2023/09/03 07:53:49;;;;;;;8.70;3.20;;;20.80;99.90;;;;;;5005714;28;20050;-67
2023/09/03 07:56:16;;;;;;;10.82;2.80;;;20.80;99.90;;;;;;4962210;28;20053;-67
2023/09/03 07:58:43;;;;;;;7.30;2.60;;;20.60;99.90;;;;;;5003832;28;20046;-68
2023/09/03 08:01:14;;;;;;;7.30;2.55;;;20.50;99.90;;;;;;4965740;28;20576;-66
2023/09/03 08:03:43;;;;;;;7.95;2.90;;;20.70;99.90;;;;;;5011062;28;20045;-66
2023/09/03 08:06:09;;;;;;;8.07;2.60;;;20.90;99.90;;;;;;4968737;28;20045;-68
2023/09/03 08:08:36;;;;;;;8.40;2.50;;;21.00;99.90;;;;;;4994500;28;20050;-67
2023/09/03 08:11:02;;;;;;;7.60;2.30;;;21.40;99.90;;;;;;4943184;28;20038;-66
2023/09/03 08:13:28;;;;;;;7.90;2.15;;;21.60;99.90;;;;;;4960944;28;20508;-67
2023/09/03 08:15:54;;;;;;;7.50;2.50;;;21.80;99.90;;;;;;4959368;28;20580;-67
2023/09/03 08:18:21;;;;;;;7.45;2.15;;;21.60;99.90;;;;;;5011882;28;20065;-67
2023/09/03 08:20:49;;;;;;;7.28;2.17;;;21.50;99.90;;;;;;4966662;28;20038;-66
2023/09/03 08:23:15;;;;;;;7.30;1.95;;;21.40;99.90;;;;;;4998214;28;20053;-66
2023/09/03 08:25:41;;;;;;;7.70;1.98;;;21.40;99.90;;;;;;4964844;28;20042;-65
2023/09/03 08:28:09;;;;;;;8.07;2.03;;;21.70;99.90;;;;;;5007402;28;20061;-67
2023/09/03 08:30:36;;;;;;;8.55;1.90;;;21.90;99.90;;;;;;4962077;28;20098;-67
2023/09/03 08:33:02;;;;;;;8.60;1.85;;;22.00;99.90;;;;;;4985000;28;20054;-65
2023/09/03 08:35:28;;;;;;;7.20;1.80;;;22.00;99.90;;;;;;4965888;28;20042;-67
2023/09/03 08:37:55;;;;;;;7.35;1.90;;;22.10;99.90;;;;;;4993501;28;20050;-67
2023/09/03 08:40:22;;;;;;;6.72;1.90;;;22.20;99.90;;;;;;4969029;28;20053;-67
2023/09/03 08:42:49;;;;;;;7.65;2.40;;;22.30;99.90;;;;;;5001129;28;20049;-67
2023/09/03 08:45:18;;;;;;;7.80;2.25;;;22.60;99.90;;;;;;4964645;28;20050;-66
2023/09/03 08:47:45;;;;;;;8.67;2.47;;;22.80;99.90;;;;;;4991270;28;20053;-67
2023/09/03 08:50:13;;;;;;;7.88;2.50;;;22.50;99.90;;;;;;4955327;28;196495;-67
2023/09/03 08:52:41;;;;;;;7.22;2.30;;;22.60;99.90;;;;;;4991312;28;20191;-68
2023/09/03 08:55:10;;;;;;;6.35;2.08;;;22.90;99.90;;;;;;4965483;28;20062;-68
2023/09/03 08:57:36;;;;;;;7.78;2.30;;;22.90;99.90;;;;;;5011337;28;20467;-69
2023/09/03 09:00:06;;;;;;;7.10;1.90;;;23.20;99.90;;;;;;4990363;28;20042;-65
2023/09/03 09:02:36;;;;;;;7.22;1.85;;;23.60;99.90;;;;;;4965682;28;20042;-67
2023/09/03 09:05:09;;;;;;;8.75;2.20;;;24.00;99.90;;;;;;4990837;28;20046;-67
2023/09/03 09:07:35;;;;;;;6.80;1.90;;;24.50;99.30;;;;;;4980300;28;20400;-67
2023/09/03 09:10:08;;;;;;;5.82;1.60;;;24.60;98.50;;;;;;4993586;28;20507;-67
2023/09/03 09:12:50;;;;;;;8.63;2.35;;;24.70;98.20;;;;;;4920776;28;20062;-66
2023/09/03 09:15:16;;;;;;;6.78;1.70;;;25.20;97.60;;;;;;4949809;28;20069;-65
2023/09/03 09:17:43;;;;;;;7.05;1.58;;;24.90;97.90;;;;;;4995632;28;20057;-66
2023/09/03 09:20:12;;;;;;;6.50;1.63;;;25.10;97.40;;;;;;4948405;28;20046;-66
2023/09/03 09:22:46;;;;;;;5.32;1.50;;;25.10;97.30;;;;;;5004620;28;20065;-67
2023/09/03 09:25:18;;;;;;;8.27;2.08;;;25.10;97.10;;;;;;4964093;28;20063;-67
2023/09/03 09:27:44;;;;;;;6.35;1.58;;;24.40;96.30;;;;;;5014092;28;20053;-67
2023/09/03 09:30:15;;;;;;;6.85;1.80;;;24.20;97.40;;;;;;4964217;28;20518;-66
2023/09/03 09:32:43;;;;;;;6.90;1.63;;;24.60;97.80;;;;;;4999758;28;20414;-67
2023/09/03 09:35:10;;;;;;;7.00;1.50;;;25.00;97.50;;;;;;4965159;28;20399;-65
2023/09/03 09:37:40;;;;;;;5.60;1.50;;;25.10;96.70;;;;;;5020782;28;20064;-67
2023/09/03 09:40:08;;;;;;;7.05;1.50;;;24.80;96.50;;;;;;4971846;28;20701;-67
2023/09/03 09:42:51;;;;;;;4.97;1.40;;;24.80;96.10;;;;;;4998922;28;20132;-69
2023/09/03 09:45:17;;;;;;;6.97;1.40;;;25.00;95.30;;;;;;4963503;28;20057;-66
2023/09/03 09:47:43;;;;;;;6.25;1.45;;;25.30;95.90;;;;;;4994558;28;20084;-67
2023/09/03 09:50:09;;;;;;;5.10;1.30;;;25.60;95.40;;;;;;4961887;28;20061;-66
2023/09/03 09:52:36;;;;;;;7.53;1.30;;;26.00;95.80;;;;;;4971113;28;20057;-67
2023/09/03 09:55:03;;;;;;;5.05;1.23;;;26.30;95.40;;;;;;4987158;28;20046;-66
2023/09/03 09:57:29;;;;;;;5.25;1.40;;;26.90;95.20;;;;;;5002959;28;20050;-66
2023/09/03 10:00:01;;;;;;;7.18;1.52;;;27.10;94.90;;;;;;5004523;28;20060;-67
2023/09/03 10:02:27;;;;;;;6.75;1.50;;;27.40;94.60;;;;;;4978467;28;20080;-66
2023/09/03 10:04:54;;;;;;;5.25;1.38;;;27.60;94.40;;;;;;5002057;28;20046;-67
2023/09/03 10:07:20;;;;;;;6.72;1.45;;;27.60;94.10;;;;;;4977068;28;20057;-66
2023/09/03 10:09:46;;;;;;;5.25;1.40;;;27.90;94.10;;;;;;5005588;28;20050;-66
2023/09/03 10:12:13;;;;;;;5.05;1.20;;;28.30;94.00;;;;;;4941976;28;20060;-68
2023/09/03 10:14:40;;;;;;;7.45;1.40;;;28.50;93.30;;;;;;4984641;28;20412;-67
2023/09/03 10:17:09;;;;;;;5.90;1.40;;;28.20;93.30;;;;;;4935943;28;20504;-67
2023/09/03 10:19:58;;;;;;;5.90;1.30;;;28.20;93.80;;;;;;4980913;28;20054;-66
2023/09/03 10:22:25;;;;;;;5.35;1.40;;;28.50;93.50;;;;;;4943085;28;20076;-67
2023/09/03 10:25:04;;;;;;;5.15;1.27;;;28.60;93.40;;;;;;4984447;28;20194;-67
2023/09/03 10:27:38;;;;;;;5.70;1.33;;;28.30;92.20;;;;;;4908060;28;20054;-65
2023/09/03 10:30:09;;;;;;;4.82;1.27;;;27.60;91.80;;;;;;4961730;28;20062;-66
2023/09/03 10:32:36;;;;;;;6.18;1.30;;;27.10;92.30;;;;;;4972924;28;20054;-67
2023/09/03 10:35:10;;;;;;;5.65;1.30;;;26.30;93.20;;;;;;4971459;28;20775;-67
2023/09/03 10:37:40;;;;;;;3.60;1.02;;;26.70;93.30;;;;;;4928515;28;20512;-64
2023/09/03 10:40:35;;;;;;;4.80;1.10;;;27.30;92.30;;;;;;4951018;28;20054;-66
2023/09/03 10:43:18;;;;;;;5.53;1.17;;;27.50;91.40;;;;;;4986492;28;20522;-67
2023/09/03 10:46:04;;;;;;;4.85;1.10;;;27.30;90.10;;;;;;4959097;28;20050;-68
2023/09/03 10:48:30;;;;;;;5.20;1.20;;;27.20;90.80;;;;;;4990976;28;20503;-66
2023/09/03 10:50:56;;;;;;;6.22;1.42;;;27.50;91.90;;;;;;4936040;28;207483;-66
2023/09/03 10:53:39;;;;;;;5.60;1.20;;;28.10;91.60;;;;;;5006126;28;20054;-69
2023/09/03 10:56:13;;;;;;;5.53;1.25;;;28.70;90.20;;;;;;4961456;28;21486;-67
2023/09/03 10:58:53;;;;;;;5.68;1.20;;;28.10;90.80;;;;;;5002644;28;20049;-67
2023/09/03 11:01:24;;;;;;;5.93;1.38;;;28.20;90.60;;;;;;4963066;28;20060;-66
2023/09/03 11:03:54;;;;;;;4.78;1.02;;;28.40;91.00;;;;;;4995936;28;20053;-66
2023/09/03 11:06:24;;;;;;;6.20;1.38;;;28.60;90.90;;;;;;4940798;28;20703;-65
2023/09/03 11:08:59;;;;;;;5.25;1.27;;;28.60;91.30;;;;;;4993210;28;20052;-67
2023/09/03 11:11:28;;;;;;;4.97;1.23;;;29.00;91.20;;;;;;4967328;28;20057;-65
2023/09/03 11:13:55;;;;;;;5.32;1.30;;;29.30;90.80;;;;;;5003609;28;20389;-67
2023/09/03 11:16:31;;;;;;;5.68;1.40;;;29.50;90.50;;;;;;4965304;28;20046;-68
2023/09/03 11:18:58;;;;;;;5.32;1.25;;;29.00;90.10;;;;;;5002581;28;20061;-67
2023/09/03 11:21:27;;;;;;;5.45;1.40;;;28.70;90.70;;;;;;4962218;28;36756;-67
2023/09/03 11:24:14;;;;;;;4.80;1.20;;;29.00;90.80;;;;;;5000841;28;20050;-67
2023/09/03 11:26:41;;;;;;;4.82;1.25;;;29.50;91.00;;;;;;4966524;28;251613;-66
2023/09/03 11:29:23;;;;;;;5.93;1.23;;;29.90;90.00;;;;;;5004245;28;20100;-67
2023/09/03 11:31:51;;;;;;;5.00;1.38;;;29.80;90.10;;;;;;4941511;28;152694;-67
2023/09/03 11:34:22;;;;;;;5.05;1.23;;;29.70;90.30;;;;;;4991504;28;20042;-67
2023/09/03 11:36:49;;;;;;;5.47;1.35;;;29.70;90.00;;;;;;4960767;28;105735;-68
2023/09/03 11:39:17;;;;;;;6.72;1.30;;;29.70;90.50;;;;;;5003941;28;20045;-67
2023/09/03 11:41:43;;;;;;;5.95;1.20;;;29.80;90.30;;;;;;4963132;28;227828;-67
2023/09/03 11:44:14;;;;;;;5.13;1.27;;;28.90;88.90;;;;;;5010529;28;20054;-66
2023/09/03 11:46:54;;;;;;;8.55;1.30;;;27.20;90.30;;;;;;4957474;28;98959;-68
2023/09/03 11:49:24;;;;;;;7.35;1.40;;;27.10;90.50;;;;;;5003645;28;20041;-67
2023/09/03 11:51:50;;;;;;;7.13;1.40;;;27.10;90.70;;;;;;4920691;28;178299;-66
2023/09/03 11:54:26;;;;;;;4.28;1.20;;;27.50;91.30;;;;;;5002319;28;20069;-67
2023/09/03 11:56:58;;;;;;;5.50;1.20;;;28.30;90.80;;;;;;4944669;28;252394;-67
2023/09/03 11:59:24;;;;;;;5.15;1.20;;;28.80;88.10;;;;;;4999427;28;20050;-66
2023/09/03 12:01:52;;;;;;;4.65;1.10;;;28.30;90.00;;;;;;4955359;28;110039;-70
2023/09/03 12:04:18;;;;;;;4.13;1.00;;;28.50;89.80;;;;;;4980063;28;20046;-67
2023/09/03 12:06:44;;;;;;;4.70;1.13;;;29.10;89.70;;;;;;4924906;28;159592;-68
2023/09/03 12:09:11;;;;;;;4.28;1.17;;;28.60;88.10;;;;;;4973183;28;20069;-67
2023/09/03 12:11:37;;;;;;;4.85;1.10;;;28.40;90.20;;;;;;4934691;28;89409;-68
2023/09/03 12:14:03;;;;;;;5.30;1.17;;;28.90;89.30;;;;;;4972459;28;20058;-69
2023/09/03 12:16:29;;;;;;;3.85;1.00;;;29.50;88.10;;;;;;4942104;28;135060;-68
2023/09/03 12:18:59;;;;;;;5.18;1.10;;;30.00;88.30;;;;;;5009919;28;20041;-68
2023/09/03 12:21:37;;;;;;;4.85;1.10;;;30.30;87.90;;;;;;4965894;28;20146;-68
2023/09/03 12:24:05;;;;;;;4.20;1.20;;;30.30;86.20;;;;;;4991023;28;20054;-68
2023/09/03 12:26:35;;;;;;;6.05;1.10;;;29.40;89.00;;;;;;4944884;28;66250;-69
2023/09/03 12:29:03;;;;;;;5.60;1.15;;;29.90;90.10;;;;;;4986794;28;20050;-68
2023/09/03 12:31:43;;;;;;;5.80;1.25;;;30.50;88.90;;;;;;4949761;28;205654;-68
2023/09/03 12:34:10;;;;;;;4.28;1.08;;;30.80;87.40;;;;;;4990932;28;20055;-68
2023/09/03 12:36:56;;;;;;;5.18;1.20;;;30.80;86.80;;;;;;4961965;28;53673;-68
2023/09/03 12:39:40;;;;;;;4.63;1.10;;;31.00;86.80;;;;;;4986835;28;20062;-68
2023/09/03 12:42:08;;;;;;;5.38;1.20;;;31.20;88.00;;;;;;4972915;28;27589;-70
2023/09/03 12:44:35;;;;;;;4.85;1.13;;;30.90;86.90;;;;;;5007635;28;20058;-68
2023/09/03 12:47:02;;;;;;;4.78;1.13;;;30.00;87.30;;;;;;4927896;28;232069;-67
2023/09/03 12:49:29;;;;;;;4.82;1.20;;;29.80;87.50;;;;;;4986173;28;20077;-68
2023/09/03 12:51:56;;;;;;;4.45;1.00;;;29.50;86.60;;;;;;4947566;28;111373;-68